sensor_id;sensor_type;location;lat;lon;timestamp;P1;durP1;ratioP1;P2;durP2;ratioP2
2576;SDS011;1298;51.252;6.802;2024-01-06T00:02:13;27.42;;;24.70;;
2576;SDS011;1298;51.252;6.802;2024-01-06T00:04:59;27.35;;;24.67;;
2576;SDS011;1298;51.252;6.802;2024-01-06T00:07:45;26.17;;;23.63;;
2576;SDS011;1298;51.252;6.802;2024-01-06T00:10:30;26.70;;;24.08;;
2576;SDS011;1298;51.252;6.802;2024-01-06T00:13:16;26.73;;;24.13;;
2576;SDS011;1298;51.252;6.802;2024-01-06T00:16:03;26.98;;;24.33;;
2576;SDS011;1298;51.252;6.802;2024-01-06T00:18:49;26.73;;;24.10;;
2576;SDS011;1298;51.252;6.802;2024-01-06T00:21:35;27.30;;;24.63;;
2576;SDS011;1298;51.252;6.802;2024-01-06T00:24:21;28.15;;;25.30;;
2576;SDS011;1298;51.252;6.802;2024-01-06T00:27:07;27.70;;;24.95;;
2576;SDS011;1298;51.252;6.802;2024-01-06T00:29:52;27.00;;;24.33;;
2576;SDS011;1298;51.252;6.802;2024-01-06T00:32:41;28.13;;;25.30;;
2576;SDS011;1298;51.252;6.802;2024-01-06T00:35:27;27.50;;;24.77;;
2576;SDS011;1298;51.252;6.802;2024-01-06T00:38:15;27.55;;;24.80;;
2576;SDS011;1298;51.252;6.802;2024-01-06T00:41:02;28.23;;;25.40;;
2576;SDS011;1298;51.252;6.802;2024-01-06T00:43:48;28.08;;;25.25;;
2576;SDS011;1298;51.252;6.802;2024-01-06T00:46:33;27.55;;;24.80;;
2576;SDS011;1298;51.252;6.802;2024-01-06T00:49:21;27.80;;;25.02;;
2576;SDS011;1298;51.252;6.802;2024-01-06T00:52:07;28.10;;;25.30;;
2576;SDS011;1298;51.252;6.802;2024-01-06T00:54:52;28.45;;;25.60;;
2576;SDS011;1298;51.252;6.802;2024-01-06T00:57:38;28.60;;;25.67;;
2576;SDS011;1298;51.252;6.802;2024-01-06T01:00:26;28.90;;;25.95;;
2576;SDS011;1298;51.252;6.802;2024-01-06T01:03:13;29.05;;;26.08;;
2576;SDS011;1298;51.252;6.802;2024-01-06T01:06:00;29.48;;;26.42;;
2576;SDS011;1298;51.252;6.802;2024-01-06T01:08:46;28.52;;;25.60;;
2576;SDS011;1298;51.252;6.802;2024-01-06T01:11:31;29.20;;;26.23;;
2576;SDS011;1298;51.252;6.802;2024-01-06T01:14:17;28.85;;;25.90;;
2576;SDS011;1298;51.252;6.802;2024-01-06T01:17:03;28.80;;;25.88;;
2576;SDS011;1298;51.252;6.802;2024-01-06T01:19:48;28.85;;;25.90;;
2576;SDS011;1298;51.252;6.802;2024-01-06T01:22:35;29.30;;;26.27;;
2576;SDS011;1298;51.252;6.802;2024-01-06T01:25:21;29.45;;;26.40;;
2576;SDS011;1298;51.252;6.802;2024-01-06T01:28:06;29.00;;;26.02;;
2576;SDS011;1298;51.252;6.802;2024-01-06T01:30:52;29.10;;;26.10;;
2576;SDS011;1298;51.252;6.802;2024-01-06T01:33:38;29.55;;;26.48;;
2576;SDS011;1298;51.252;6.802;2024-01-06T01:36:23;29.10;;;26.13;;
2576;SDS011;1298;51.252;6.802;2024-01-06T01:39:10;28.58;;;25.70;;
2576;SDS011;1298;51.252;6.802;2024-01-06T01:41:56;28.27;;;25.40;;
2576;SDS011;1298;51.252;6.802;2024-01-06T01:44:43;29.38;;;26.35;;
2576;SDS011;1298;51.252;6.802;2024-01-06T01:47:29;28.92;;;25.95;;
2576;SDS011;1298;51.252;6.802;2024-01-06T01:50:15;29.33;;;26.27;;
2576;SDS011;1298;51.252;6.802;2024-01-06T01:53:01;29.20;;;26.17;;
2576;SDS011;1298;51.252;6.802;2024-01-06T01:55:50;29.10;;;26.08;;
2576;SDS011;1298;51.252;6.802;2024-01-06T01:58:36;29.15;;;26.13;;
2576;SDS011;1298;51.252;6.802;2024-01-06T02:01:22;29.35;;;26.30;;
2576;SDS011;1298;51.252;6.802;2024-01-06T02:04:08;29.27;;;26.23;;
2576;SDS011;1298;51.252;6.802;2024-01-06T02:06:54;29.85;;;26.75;;
2576;SDS011;1298;51.252;6.802;2024-01-06T02:09:41;29.35;;;26.30;;
2576;SDS011;1298;51.252;6.802;2024-01-06T02:12:28;29.65;;;26.58;;
2576;SDS011;1298;51.252;6.802;2024-01-06T02:15:14;29.83;;;26.73;;
2576;SDS011;1298;51.252;6.802;2024-01-06T02:18:00;29.60;;;26.48;;
2576;SDS011;1298;51.252;6.802;2024-01-06T02:20:46;30.35;;;27.15;;
2576;SDS011;1298;51.252;6.802;2024-01-06T02:23:36;29.85;;;26.70;;
2576;SDS011;1298;51.252;6.802;2024-01-06T02:26:23;29.48;;;26.40;;
2576;SDS011;1298;51.252;6.802;2024-01-06T02:29:09;29.80;;;26.65;;
2576;SDS011;1298;51.252;6.802;2024-01-06T02:31:55;28.95;;;25.98;;
2576;SDS011;1298;51.252;6.802;2024-01-06T02:34:42;29.83;;;26.75;;
2576;SDS011;1298;51.252;6.802;2024-01-06T02:37:30;28.35;;;25.48;;
2576;SDS011;1298;51.252;6.802;2024-01-06T02:40:19;29.10;;;26.10;;
2576;SDS011;1298;51.252;6.802;2024-01-06T02:43:05;29.90;;;26.77;;
2576;SDS011;1298;51.252;6.802;2024-01-06T02:45:50;29.65;;;26.55;;
2576;SDS011;1298;51.252;6.802;2024-01-06T02:48:36;30.38;;;27.17;;
2576;SDS011;1298;51.252;6.802;2024-01-06T02:51:22;29.77;;;26.65;;
2576;SDS011;1298;51.252;6.802;2024-01-06T02:54:07;29.38;;;26.35;;
2576;SDS011;1298;51.252;6.802;2024-01-06T02:56:54;30.13;;;26.98;;
2576;SDS011;1298;51.252;6.802;2024-01-06T02:59:40;29.95;;;26.77;;
2576;SDS011;1298;51.252;6.802;2024-01-06T03:02:25;30.05;;;26.88;;
2576;SDS011;1298;51.252;6.802;2024-01-06T03:05:11;29.83;;;26.67;;
2576;SDS011;1298;51.252;6.802;2024-01-06T03:07:56;30.65;;;27.40;;
2576;SDS011;1298;51.252;6.802;2024-01-06T03:10:42;30.77;;;27.50;;
2576;SDS011;1298;51.252;6.802;2024-01-06T03:13:29;30.52;;;27.30;;
2576;SDS011;1298;51.252;6.802;2024-01-06T03:16:15;30.88;;;27.60;;
2576;SDS011;1298;51.252;6.802;2024-01-06T03:19:00;30.58;;;27.33;;
2576;SDS011;1298;51.252;6.802;2024-01-06T03:21:45;31.05;;;27.75;;
2576;SDS011;1298;51.252;6.802;2024-01-06T03:24:31;30.98;;;27.70;;
2576;SDS011;1298;51.252;6.802;2024-01-06T03:27:17;30.02;;;26.85;;
2576;SDS011;1298;51.252;6.802;2024-01-06T03:30:04;30.67;;;27.40;;
2576;SDS011;1298;51.252;6.802;2024-01-06T03:32:50;30.02;;;26.85;;
2576;SDS011;1298;51.252;6.802;2024-01-06T03:35:36;30.45;;;27.23;;
2576;SDS011;1298;51.252;6.802;2024-01-06T03:38:21;30.98;;;27.70;;
2576;SDS011;1298;51.252;6.802;2024-01-06T03:41:07;29.85;;;26.70;;
2576;SDS011;1298;51.252;6.802;2024-01-06T03:43:53;29.48;;;26.40;;
2576;SDS011;1298;51.252;6.802;2024-01-06T03:46:40;30.05;;;26.88;;
2576;SDS011;1298;51.252;6.802;2024-01-06T03:49:25;29.85;;;26.73;;
2576;SDS011;1298;51.252;6.802;2024-01-06T03:52:11;29.85;;;26.70;;
2576;SDS011;1298;51.252;6.802;2024-01-06T03:54:57;29.10;;;26.08;;
2576;SDS011;1298;51.252;6.802;2024-01-06T03:57:43;26.17;;;23.67;;
2576;SDS011;1298;51.252;6.802;2024-01-06T04:00:28;24.98;;;22.63;;
2576;SDS011;1298;51.252;6.802;2024-01-06T04:03:15;23.63;;;21.48;;
2576;SDS011;1298;51.252;6.802;2024-01-06T04:06:01;23.00;;;20.95;;
2576;SDS011;1298;51.252;6.802;2024-01-06T04:08:46;22.30;;;20.33;;
2576;SDS011;1298;51.252;6.802;2024-01-06T04:11:32;22.08;;;20.17;;
2576;SDS011;1298;51.252;6.802;2024-01-06T04:14:17;22.08;;;20.15;;
2576;SDS011;1298;51.252;6.802;2024-01-06T04:17:03;21.95;;;20.08;;
2576;SDS011;1298;51.252;6.802;2024-01-06T04:19:50;21.38;;;19.52;;
2576;SDS011;1298;51.252;6.802;2024-01-06T04:22:35;21.90;;;20.02;;
2576;SDS011;1298;51.252;6.802;2024-01-06T04:25:21;21.55;;;19.70;;
2576;SDS011;1298;51.252;6.802;2024-01-06T04:28:06;22.42;;;20.52;;
2576;SDS011;1298;51.252;6.802;2024-01-06T04:30:52;21.08;;;19.25;;
2576;SDS011;1298;51.252;6.802;2024-01-06T04:33:37;21.48;;;19.65;;
2576;SDS011;1298;51.252;6.802;2024-01-06T04:36:25;21.45;;;19.60;;
2576;SDS011;1298;51.252;6.802;2024-01-06T04:39:10;21.13;;;19.33;;
2576;SDS011;1298;51.252;6.802;2024-01-06T04:41:57;21.35;;;19.52;;
2576;SDS011;1298;51.252;6.802;2024-01-06T04:44:42;21.45;;;19.63;;
2576;SDS011;1298;51.252;6.802;2024-01-06T04:47:28;21.38;;;19.55;;
2576;SDS011;1298;51.252;6.802;2024-01-06T04:50:14;21.40;;;19.55;;
2576;SDS011;1298;51.252;6.802;2024-01-06T04:53:01;21.40;;;19.55;;
2576;SDS011;1298;51.252;6.802;2024-01-06T04:55:46;20.70;;;18.95;;
2576;SDS011;1298;51.252;6.802;2024-01-06T04:58:32;20.42;;;18.70;;
2576;SDS011;1298;51.252;6.802;2024-01-06T05:01:18;20.65;;;18.90;;
2576;SDS011;1298;51.252;6.802;2024-01-06T05:04:03;20.10;;;18.42;;
2576;SDS011;1298;51.252;6.802;2024-01-06T05:06:49;19.92;;;18.27;;
2576;SDS011;1298;51.252;6.802;2024-01-06T05:09:37;20.85;;;19.10;;
2576;SDS011;1298;51.252;6.802;2024-01-06T05:12:22;20.35;;;18.63;;
2576;SDS011;1298;51.252;6.802;2024-01-06T05:15:08;20.70;;;19.02;;
2576;SDS011;1298;51.252;6.802;2024-01-06T05:17:54;20.08;;;18.42;;
2576;SDS011;1298;51.252;6.802;2024-01-06T05:20:40;20.42;;;18.75;;
2576;SDS011;1298;51.252;6.802;2024-01-06T05:23:26;19.85;;;18.20;;
2576;SDS011;1298;51.252;6.802;2024-01-06T05:26:12;19.67;;;18.05;;
2576;SDS011;1298;51.252;6.802;2024-01-06T05:28:58;19.58;;;17.98;;
2576;SDS011;1298;51.252;6.802;2024-01-06T05:31:44;19.50;;;17.90;;
2576;SDS011;1298;51.252;6.802;2024-01-06T05:34:30;19.98;;;18.33;;
2576;SDS011;1298;51.252;6.802;2024-01-06T05:37:16;19.85;;;18.20;;
2576;SDS011;1298;51.252;6.802;2024-01-06T05:40:02;19.73;;;18.10;;
2576;SDS011;1298;51.252;6.802;2024-01-06T05:42:50;19.75;;;18.13;;
2576;SDS011;1298;51.252;6.802;2024-01-06T05:45:39;19.88;;;18.25;;
2576;SDS011;1298;51.252;6.802;2024-01-06T05:48:25;19.92;;;18.25;;
2576;SDS011;1298;51.252;6.802;2024-01-06T05:51:10;19.48;;;17.88;;
2576;SDS011;1298;51.252;6.802;2024-01-06T05:53:56;19.33;;;17.70;;
2576;SDS011;1298;51.252;6.802;2024-01-06T05:56:41;20.88;;;19.13;;
2576;SDS011;1298;51.252;6.802;2024-01-06T05:59:28;20.30;;;18.58;;
2576;SDS011;1298;51.252;6.802;2024-01-06T06:02:17;21.00;;;19.23;;
2576;SDS011;1298;51.252;6.802;2024-01-06T06:05:03;21.15;;;19.38;;
2576;SDS011;1298;51.252;6.802;2024-01-06T06:07:49;21.17;;;19.40;;
2576;SDS011;1298;51.252;6.802;2024-01-06T06:10:34;20.92;;;19.17;;
2576;SDS011;1298;51.252;6.802;2024-01-06T06:13:35;19.88;;;18.20;;
2576;SDS011;1298;51.252;6.802;2024-01-06T06:16:22;20.95;;;19.17;;
2576;SDS011;1298;51.252;6.802;2024-01-06T06:19:07;20.35;;;18.65;;
2576;SDS011;1298;51.252;6.802;2024-01-06T06:21:53;20.38;;;18.65;;
2576;SDS011;1298;51.252;6.802;2024-01-06T06:24:38;20.77;;;19.02;;
2576;SDS011;1298;51.252;6.802;2024-01-06T06:27:24;20.02;;;18.35;;
2576;SDS011;1298;51.252;6.802;2024-01-06T06:30:10;20.75;;;19.02;;
2576;SDS011;1298;51.252;6.802;2024-01-06T06:32:58;20.25;;;18.58;;
2576;SDS011;1298;51.252;6.802;2024-01-06T06:35:43;19.55;;;17.90;;
2576;SDS011;1298;51.252;6.802;2024-01-06T06:38:29;19.85;;;18.17;;
2576;SDS011;1298;51.252;6.802;2024-01-06T06:41:14;20.13;;;18.45;;
2576;SDS011;1298;51.252;6.802;2024-01-06T06:44:00;19.80;;;18.15;;
2576;SDS011;1298;51.252;6.802;2024-01-06T06:46:46;19.90;;;18.25;;
2576;SDS011;1298;51.252;6.802;2024-01-06T06:49:33;19.40;;;17.77;;
2576;SDS011;1298;51.252;6.802;2024-01-06T06:52:18;19.85;;;18.20;;
2576;SDS011;1298;51.252;6.802;2024-01-06T06:55:04;19.23;;;17.65;;
2576;SDS011;1298;51.252;6.802;2024-01-06T06:57:50;19.05;;;17.48;;
2576;SDS011;1298;51.252;6.802;2024-01-06T07:00:36;18.77;;;17.25;;
2576;SDS011;1298;51.252;6.802;2024-01-06T07:03:21;17.70;;;16.35;;
2576;SDS011;1298;51.252;6.802;2024-01-06T07:06:08;16.65;;;15.38;;
2576;SDS011;1298;51.252;6.802;2024-01-06T07:08:56;14.23;;;13.23;;
2576;SDS011;1298;51.252;6.802;2024-01-06T07:11:42;14.52;;;13.50;;
2576;SDS011;1298;51.252;6.802;2024-01-06T07:14:28;13.55;;;12.57;;
2576;SDS011;1298;51.252;6.802;2024-01-06T07:17:13;13.07;;;12.18;;
2576;SDS011;1298;51.252;6.802;2024-01-06T07:19:59;12.70;;;11.82;;
2576;SDS011;1298;51.252;6.802;2024-01-06T07:22:46;11.63;;;10.82;;
2576;SDS011;1298;51.252;6.802;2024-01-06T07:25:31;12.02;;;11.20;;
2576;SDS011;1298;51.252;6.802;2024-01-06T07:28:17;11.88;;;11.05;;
2576;SDS011;1298;51.252;6.802;2024-01-06T07:31:03;11.75;;;10.95;;
2576;SDS011;1298;51.252;6.802;2024-01-06T07:33:49;11.52;;;10.73;;
2576;SDS011;1298;51.252;6.802;2024-01-06T07:36:34;10.98;;;10.25;;
2576;SDS011;1298;51.252;6.802;2024-01-06T07:39:21;5.88;;;5.55;;
2576;SDS011;1298;51.252;6.802;2024-01-06T07:42:07;2.22;;;2.13;;
2576;SDS011;1298;51.252;6.802;2024-01-06T07:44:53;3.38;;;3.17;;
2576;SDS011;1298;51.252;6.802;2024-01-06T07:47:38;1.40;;;1.40;;
2576;SDS011;1298;51.252;6.802;2024-01-06T07:50:24;1.13;;;1.13;;
2576;SDS011;1298;51.252;6.802;2024-01-06T07:53:09;1.13;;;1.13;;
2576;SDS011;1298;51.252;6.802;2024-01-06T07:55:57;1.48;;;1.45;;
2576;SDS011;1298;51.252;6.802;2024-01-06T07:58:42;1.33;;;1.33;;
2576;SDS011;1298;51.252;6.802;2024-01-06T08:01:28;0.90;;;0.90;;
2576;SDS011;1298;51.252;6.802;2024-01-06T08:04:14;1.08;;;1.08;;
2576;SDS011;1298;51.252;6.802;2024-01-06T08:06:59;1.88;;;1.88;;
2576;SDS011;1298;51.252;6.802;2024-01-06T08:09:45;1.02;;;1.02;;
2576;SDS011;1298;51.252;6.802;2024-01-06T08:12:32;1.33;;;1.33;;
2576;SDS011;1298;51.252;6.802;2024-01-06T08:15:18;2.22;;;2.13;;
2576;SDS011;1298;51.252;6.802;2024-01-06T08:18:03;1.58;;;1.55;;
2576;SDS011;1298;51.252;6.802;2024-01-06T08:20:49;1.90;;;1.80;;
2576;SDS011;1298;51.252;6.802;2024-01-06T08:23:35;1.92;;;1.83;;
2576;SDS011;1298;51.252;6.802;2024-01-06T08:26:21;4.05;;;3.85;;
2576;SDS011;1298;51.252;6.802;2024-01-06T08:29:08;2.13;;;2.03;;
2576;SDS011;1298;51.252;6.802;2024-01-06T08:31:53;3.42;;;3.22;;
2576;SDS011;1298;51.252;6.802;2024-01-06T08:34:39;1.38;;;1.38;;
2576;SDS011;1298;51.252;6.802;2024-01-06T08:37:24;1.10;;;1.10;;
2576;SDS011;1298;51.252;6.802;2024-01-06T08:40:10;0.98;;;0.98;;
2576;SDS011;1298;51.252;6.802;2024-01-06T08:42:56;1.00;;;1.00;;
2576;SDS011;1298;51.252;6.802;2024-01-06T08:45:43;3.17;;;3.08;;
2576;SDS011;1298;51.252;6.802;2024-01-06T08:48:29;2.55;;;2.45;;
2576;SDS011;1298;51.252;6.802;2024-01-06T08:51:14;3.17;;;3.08;;
2576;SDS011;1298;51.252;6.802;2024-01-06T08:54:00;5.10;;;4.90;;
2576;SDS011;1298;51.252;6.802;2024-01-06T08:56:47;4.88;;;4.63;;
2576;SDS011;1298;51.252;6.802;2024-01-06T08:59:32;3.83;;;3.63;;
2576;SDS011;1298;51.252;6.802;2024-01-06T09:02:19;5.45;;;5.15;;
2576;SDS011;1298;51.252;6.802;2024-01-06T09:05:05;9.07;;;8.50;;
2576;SDS011;1298;51.252;6.802;2024-01-06T09:07:51;3.58;;;3.38;;
2576;SDS011;1298;51.252;6.802;2024-01-06T09:10:36;3.75;;;3.55;;
2576;SDS011;1298;51.252;6.802;2024-01-06T09:13:22;3.25;;;3.13;;
2576;SDS011;1298;51.252;6.802;2024-01-06T09:16:07;3.25;;;3.05;;
2576;SDS011;1298;51.252;6.802;2024-01-06T09:18:55;3.53;;;3.33;;
2576;SDS011;1298;51.252;6.802;2024-01-06T09:21:41;3.83;;;3.63;;
2576;SDS011;1298;51.252;6.802;2024-01-06T09:24:27;4.32;;;4.13;;
2576;SDS011;1298;51.252;6.802;2024-01-06T09:27:12;5.53;;;5.22;;
2576;SDS011;1298;51.252;6.802;2024-01-06T09:29:58;4.20;;;4.00;;
2576;SDS011;1298;51.252;6.802;2024-01-06T09:32:44;3.60;;;3.47;;
2576;SDS011;1298;51.252;6.802;2024-01-06T09:35:31;1.20;;;1.20;;
2576;SDS011;1298;51.252;6.802;2024-01-06T09:38:16;1.10;;;1.10;;
2576;SDS011;1298;51.252;6.802;2024-01-06T09:41:02;1.00;;;1.00;;
2576;SDS011;1298;51.252;6.802;2024-01-06T09:43:48;1.10;;;1.10;;
2576;SDS011;1298;51.252;6.802;2024-01-06T09:46:33;0.93;;;0.93;;
2576;SDS011;1298;51.252;6.802;2024-01-06T09:49:22;0.95;;;0.95;;
2576;SDS011;1298;51.252;6.802;2024-01-06T09:52:11;1.00;;;1.00;;
2576;SDS011;1298;51.252;6.802;2024-01-06T09:55:00;1.00;;;1.00;;
2576;SDS011;1298;51.252;6.802;2024-01-06T09:57:49;0.90;;;0.90;;
2576;SDS011;1298;51.252;6.802;2024-01-06T10:00:35;1.00;;;1.00;;
2576;SDS011;1298;51.252;6.802;2024-01-06T10:03:20;0.88;;;0.88;;
2576;SDS011;1298;51.252;6.802;2024-01-06T10:06:06;1.00;;;1.00;;
2576;SDS011;1298;51.252;6.802;2024-01-06T10:08:54;0.90;;;0.90;;
2576;SDS011;1298;51.252;6.802;2024-01-06T10:11:40;0.98;;;0.98;;
2576;SDS011;1298;51.252;6.802;2024-01-06T10:14:26;1.00;;;1.00;;
2576;SDS011;1298;51.252;6.802;2024-01-06T10:17:12;0.90;;;0.90;;
2576;SDS011;1298;51.252;6.802;2024-01-06T10:19:58;0.88;;;0.88;;
2576;SDS011;1298;51.252;6.802;2024-01-06T10:22:44;1.20;;;1.20;;
2576;SDS011;1298;51.252;6.802;2024-01-06T10:25:31;1.05;;;1.05;;
2576;SDS011;1298;51.252;6.802;2024-01-06T10:28:17;1.00;;;1.00;;
2576;SDS011;1298;51.252;6.802;2024-01-06T10:31:03;1.30;;;1.30;;
2576;SDS011;1298;51.252;6.802;2024-01-06T10:33:48;1.50;;;1.50;;
2576;SDS011;1298;51.252;6.802;2024-01-06T10:36:34;1.23;;;1.23;;
2576;SDS011;1298;51.252;6.802;2024-01-06T10:39:21;1.25;;;1.25;;
2576;SDS011;1298;51.252;6.802;2024-01-06T10:42:08;1.25;;;1.25;;
2576;SDS011;1298;51.252;6.802;2024-01-06T10:44:56;1.00;;;1.00;;
2576;SDS011;1298;51.252;6.802;2024-01-06T10:47:42;1.15;;;1.15;;
2576;SDS011;1298;51.252;6.802;2024-01-06T10:50:28;1.30;;;1.30;;
2576;SDS011;1298;51.252;6.802;2024-01-06T10:53:15;1.80;;;1.80;;
2576;SDS011;1298;51.252;6.802;2024-01-06T10:56:03;1.10;;;1.10;;
2576;SDS011;1298;51.252;6.802;2024-01-06T10:58:51;1.00;;;1.00;;
2576;SDS011;1298;51.252;6.802;2024-01-06T11:01:39;0.90;;;0.90;;
2576;SDS011;1298;51.252;6.802;2024-01-06T11:04:25;0.95;;;0.95;;
2576;SDS011;1298;51.252;6.802;2024-01-06T11:07:11;0.90;;;0.90;;
2576;SDS011;1298;51.252;6.802;2024-01-06T11:09:59;1.05;;;1.05;;
2576;SDS011;1298;51.252;6.802;2024-01-06T11:15:52;1.30;;;1.30;;
2576;SDS011;1298;51.252;6.802;2024-01-06T11:18:39;1.00;;;1.00;;
2576;SDS011;1298;51.252;6.802;2024-01-06T11:21:26;1.10;;;1.10;;
2576;SDS011;1298;51.252;6.802;2024-01-06T11:24:14;1.10;;;1.10;;
2576;SDS011;1298;51.252;6.802;2024-01-06T11:27:01;1.13;;;1.13;;
2576;SDS011;1298;51.252;6.802;2024-01-06T11:29:46;1.35;;;1.35;;
2576;SDS011;1298;51.252;6.802;2024-01-06T11:32:34;1.50;;;1.50;;
2576;SDS011;1298;51.252;6.802;2024-01-06T11:35:22;1.23;;;1.23;;
2576;SDS011;1298;51.252;6.802;2024-01-06T11:38:08;1.10;;;1.10;;
2576;SDS011;1298;51.252;6.802;2024-01-06T11:40:56;1.17;;;1.17;;
2576;SDS011;1298;51.252;6.802;2024-01-06T11:43:42;1.05;;;1.05;;
2576;SDS011;1298;51.252;6.802;2024-01-06T11:46:28;2.55;;;2.45;;
2576;SDS011;1298;51.252;6.802;2024-01-06T11:49:16;0.90;;;0.90;;
2576;SDS011;1298;51.252;6.802;2024-01-06T11:52:04;1.10;;;1.10;;
2576;SDS011;1298;51.252;6.802;2024-01-06T11:54:51;1.40;;;1.40;;
2576;SDS011;1298;51.252;6.802;2024-01-06T11:57:38;1.13;;;1.13;;
2576;SDS011;1298;51.252;6.802;2024-01-06T12:00:23;1.17;;;1.17;;
2576;SDS011;1298;51.252;6.802;2024-01-06T12:03:09;1.10;;;1.10;;
2576;SDS011;1298;51.252;6.802;2024-01-06T12:06:02;1.50;;;1.50;;
2576;SDS011;1298;51.252;6.802;2024-01-06T12:08:49;1.20;;;1.20;;
2576;SDS011;1298;51.252;6.802;2024-01-06T12:11:35;0.98;;;0.98;;
2576;SDS011;1298;51.252;6.802;2024-01-06T12:14:21;1.23;;;1.23;;
2576;SDS011;1298;51.252;6.802;2024-01-06T12:17:06;1.10;;;1.10;;
2576;SDS011;1298;51.252;6.802;2024-01-06T12:19:52;1.20;;;1.20;;
2576;SDS011;1298;51.252;6.802;2024-01-06T12:22:39;1.10;;;1.10;;
2576;SDS011;1298;51.252;6.802;2024-01-06T12:25:25;1.30;;;1.30;;
2576;SDS011;1298;51.252;6.802;2024-01-06T12:28:12;1.10;;;1.10;;
2576;SDS011;1298;51.252;6.802;2024-01-06T12:31:02;1.13;;;1.13;;
2576;SDS011;1298;51.252;6.802;2024-01-06T12:33:49;1.90;;;1.85;;
2576;SDS011;1298;51.252;6.802;2024-01-06T12:36:34;1.00;;;1.00;;
2576;SDS011;1298;51.252;6.802;2024-01-06T12:39:22;1.13;;;1.13;;
2576;SDS011;1298;51.252;6.802;2024-01-06T12:42:07;1.00;;;1.00;;
2576;SDS011;1298;51.252;6.802;2024-01-06T12:44:53;1.00;;;1.00;;
2576;SDS011;1298;51.252;6.802;2024-01-06T12:47:38;1.10;;;1.10;;
2576;SDS011;1298;51.252;6.802;2024-01-06T12:50:24;1.10;;;1.10;;
2576;SDS011;1298;51.252;6.802;2024-01-06T12:53:10;1.75;;;1.75;;
2576;SDS011;1298;51.252;6.802;2024-01-06T12:55:57;1.20;;;1.20;;
2576;SDS011;1298;51.252;6.802;2024-01-06T12:58:43;1.20;;;1.20;;
2576;SDS011;1298;51.252;6.802;2024-01-06T13:01:29;1.48;;;1.48;;
2576;SDS011;1298;51.252;6.802;2024-01-06T13:04:14;1.20;;;1.20;;
2576;SDS011;1298;51.252;6.802;2024-01-06T13:07:00;1.33;;;1.33;;
2576;SDS011;1298;51.252;6.802;2024-01-06T13:09:46;2.03;;;1.92;;
2576;SDS011;1298;51.252;6.802;2024-01-06T13:12:33;1.20;;;1.20;;
2576;SDS011;1298;51.252;6.802;2024-01-06T13:15:18;1.30;;;1.20;;
2576;SDS011;1298;51.252;6.802;2024-01-06T13:18:04;1.20;;;1.20;;
2576;SDS011;1298;51.252;6.802;2024-01-06T13:20:50;1.48;;;1.48;;
2576;SDS011;1298;51.252;6.802;2024-01-06T13:23:35;1.15;;;1.15;;
2576;SDS011;1298;51.252;6.802;2024-01-06T13:26:21;1.20;;;1.20;;
2576;SDS011;1298;51.252;6.802;2024-01-06T13:29:08;1.20;;;1.20;;
2576;SDS011;1298;51.252;6.802;2024-01-06T13:31:53;1.10;;;1.10;;
2576;SDS011;1298;51.252;6.802;2024-01-06T13:34:41;1.23;;;1.23;;
2576;SDS011;1298;51.252;6.802;2024-01-06T13:37:26;1.60;;;1.60;;
2576;SDS011;1298;51.252;6.802;2024-01-06T13:40:12;1.20;;;1.20;;
2576;SDS011;1298;51.252;6.802;2024-01-06T13:42:58;1.23;;;1.23;;
2576;SDS011;1298;51.252;6.802;2024-01-06T13:45:44;1.20;;;1.20;;
2576;SDS011;1298;51.252;6.802;2024-01-06T13:48:31;1.20;;;1.20;;
2576;SDS011;1298;51.252;6.802;2024-01-06T13:51:16;1.30;;;1.30;;
2576;SDS011;1298;51.252;6.802;2024-01-06T13:54:02;1.40;;;1.40;;
2576;SDS011;1298;51.252;6.802;2024-01-06T13:56:48;1.60;;;1.60;;
2576;SDS011;1298;51.252;6.802;2024-01-06T13:59:33;2.22;;;2.13;;
2576;SDS011;1298;51.252;6.802;2024-01-06T14:02:23;2.75;;;2.63;;
2576;SDS011;1298;51.252;6.802;2024-01-06T14:05:09;4.18;;;3.92;;
2576;SDS011;1298;51.252;6.802;2024-01-06T14:07:54;9.07;;;8.43;;
2576;SDS011;1298;51.252;6.802;2024-01-06T14:10:40;1.55;;;1.50;;
2576;SDS011;1298;51.252;6.802;2024-01-06T14:13:25;5.38;;;5.07;;
2576;SDS011;1298;51.252;6.802;2024-01-06T14:16:11;3.35;;;3.15;;
2576;SDS011;1298;51.252;6.802;2024-01-06T14:18:58;1.48;;;1.48;;
2576;SDS011;1298;51.252;6.802;2024-01-06T14:21:43;3.85;;;3.65;;
2576;SDS011;1298;51.252;6.802;2024-01-06T14:24:29;4.78;;;4.47;;
2576;SDS011;1298;51.252;6.802;2024-01-06T14:27:14;4.20;;;3.90;;
2576;SDS011;1298;51.252;6.802;2024-01-06T14:30:00;4.30;;;4.00;;
2576;SDS011;1298;51.252;6.802;2024-01-06T14:32:46;10.02;;;9.27;;
2576;SDS011;1298;51.252;6.802;2024-01-06T14:35:33;4.45;;;4.15;;
2576;SDS011;1298;51.252;6.802;2024-01-06T14:38:18;10.98;;;10.13;;
2576;SDS011;1298;51.252;6.802;2024-01-06T14:41:04;4.25;;;3.95;;
2576;SDS011;1298;51.252;6.802;2024-01-06T14:43:49;10.30;;;9.55;;
2576;SDS011;1298;51.252;6.802;2024-01-06T14:46:35;3.90;;;3.67;;
2576;SDS011;1298;51.252;6.802;2024-01-06T14:49:21;10.70;;;9.85;;
2576;SDS011;1298;51.252;6.802;2024-01-06T14:52:09;10.90;;;10.05;;
2576;SDS011;1298;51.252;6.802;2024-01-06T14:54:54;5.32;;;4.97;;
2576;SDS011;1298;51.252;6.802;2024-01-06T14:57:40;11.55;;;10.68;;
2576;SDS011;1298;51.252;6.802;2024-01-06T15:00:26;12.23;;;11.27;;
2576;SDS011;1298;51.252;6.802;2024-01-06T15:03:12;13.20;;;12.15;;
2576;SDS011;1298;51.252;6.802;2024-01-06T15:05:58;14.27;;;13.18;;
2576;SDS011;1298;51.252;6.802;2024-01-06T15:08:44;13.55;;;12.48;;
2576;SDS011;1298;51.252;6.802;2024-01-06T15:11:30;12.80;;;11.77;;
2576;SDS011;1298;51.252;6.802;2024-01-06T15:14:16;14.70;;;13.52;;
2576;SDS011;1298;51.252;6.802;2024-01-06T15:17:01;13.05;;;12.00;;
2576;SDS011;1298;51.252;6.802;2024-01-06T15:19:47;13.73;;;12.63;;
2576;SDS011;1298;51.252;6.802;2024-01-06T15:22:32;13.13;;;12.07;;
2576;SDS011;1298;51.252;6.802;2024-01-06T15:25:19;13.15;;;12.10;;
2576;SDS011;1298;51.252;6.802;2024-01-06T15:28:05;13.45;;;12.38;;
2576;SDS011;1298;51.252;6.802;2024-01-06T15:30:51;14.05;;;12.93;;
2576;SDS011;1298;51.252;6.802;2024-01-06T15:33:36;15.85;;;14.55;;
2576;SDS011;1298;51.252;6.802;2024-01-06T15:36:25;14.98;;;13.75;;
2576;SDS011;1298;51.252;6.802;2024-01-06T15:39:11;15.77;;;14.48;;
2576;SDS011;1298;51.252;6.802;2024-01-06T15:41:59;15.07;;;13.82;;
2576;SDS011;1298;51.252;6.802;2024-01-06T15:44:45;16.23;;;14.88;;
2576;SDS011;1298;51.252;6.802;2024-01-06T15:47:30;15.27;;;14.02;;
2576;SDS011;1298;51.252;6.802;2024-01-06T15:50:17;14.73;;;13.50;;
2576;SDS011;1298;51.252;6.802;2024-01-06T15:53:02;14.60;;;13.40;;
2576;SDS011;1298;51.252;6.802;2024-01-06T15:55:48;14.55;;;13.38;;
2576;SDS011;1298;51.252;6.802;2024-01-06T15:58:35;14.88;;;13.63;;
2576;SDS011;1298;51.252;6.802;2024-01-06T16:01:21;14.98;;;13.73;;
2576;SDS011;1298;51.252;6.802;2024-01-06T16:04:06;15.40;;;14.07;;
2576;SDS011;1298;51.252;6.802;2024-01-06T16:06:55;16.45;;;15.02;;
2576;SDS011;1298;51.252;6.802;2024-01-06T16:09:41;16.13;;;14.77;;
2576;SDS011;1298;51.252;6.802;2024-01-06T16:12:31;16.40;;;15.00;;
2576;SDS011;1298;51.252;6.802;2024-01-06T16:15:19;16.33;;;14.90;;
2576;SDS011;1298;51.252;6.802;2024-01-06T16:18:05;15.55;;;14.20;;
2576;SDS011;1298;51.252;6.802;2024-01-06T16:20:51;15.60;;;14.25;;
2576;SDS011;1298;51.252;6.802;2024-01-06T16:23:38;16.35;;;14.95;;
2576;SDS011;1298;51.252;6.802;2024-01-06T16:26:24;15.38;;;14.05;;
2576;SDS011;1298;51.252;6.802;2024-01-06T16:29:10;15.80;;;14.45;;
2576;SDS011;1298;51.252;6.802;2024-01-06T16:31:57;15.75;;;14.40;;
2576;SDS011;1298;51.252;6.802;2024-01-06T16:34:43;16.48;;;15.07;;
2576;SDS011;1298;51.252;6.802;2024-01-06T16:37:30;15.52;;;14.18;;
2576;SDS011;1298;51.252;6.802;2024-01-06T16:40:16;15.57;;;14.23;;
2576;SDS011;1298;51.252;6.802;2024-01-06T16:43:04;15.77;;;14.43;;
2576;SDS011;1298;51.252;6.802;2024-01-06T16:45:49;16.23;;;14.80;;
2576;SDS011;1298;51.252;6.802;2024-01-06T16:48:36;14.73;;;13.50;;
2576;SDS011;1298;51.252;6.802;2024-01-06T16:51:22;14.18;;;13.00;;
2576;SDS011;1298;51.252;6.802;2024-01-06T16:54:08;14.50;;;13.27;;
2576;SDS011;1298;51.252;6.802;2024-01-06T16:56:55;15.20;;;13.95;;
2576;SDS011;1298;51.252;6.802;2024-01-06T16:59:43;14.10;;;12.95;;